Flight Track Log - Related Links

Times and Time Zones

All times are in EDT time to prevent confusion due to time zone crossing. See the TSC416 flight status page for this flight to view local times or setup timezone preferences in your user account.

Time Position Orientation Groundspeed Altitude Reporting Facility
EDT Latitude Longitude Course Direction KTS MPH feet Rate Location/Type
Mon 05:12:53 PM 45.4500 -73.7167 225° Southwest 140 161 600  Level Montreal Center
Mon 05:13:53 PM 45.4167 -73.8000 240° Southwest 180 207 2,200 1,900 Climbing Montreal Center
Mon 05:14:53 PM 45.3667 -73.8500 215° Southwest 250 288 4,400 2,264 Climbing Montreal Center
Mon 05:17:00 PM 44.7805 -74.1197 189° South  Level FlightAware Approximate
Mon 05:18:00 PM 44.6837 -74.1796 225° Southwest  Level FlightAware Approximate
Mon 05:20:57 PM 44.8750 -74.0760 215° Southwest 371 427 18,200  Level FlightAware ADS-B
Mon 05:21:37 PM 44.8080 -74.1050 197° South 377 434 19,600 2,047 Climbing FlightAware ADS-B
Mon 05:22:22 PM 44.7350 -74.1500 204° Southwest 385 443 21,100 1,906 Climbing FlightAware ADS-B
Mon 05:23:02 PM 44.6760 -74.2080 215° Southwest 389 448 22,300 1,835 Climbing FlightAware ADS-B
Mon 05:23:47 PM 44.6180 -74.2850 223° Southwest 394 453 23,700 1,694 Climbing FlightAware ADS-B
Mon 05:24:27 PM 44.5660 -74.3570 225° Southwest 400 460 24,700 1,500 Climbing FlightAware ADS-B
Mon 05:25:07 PM 44.5120 -74.4300 224° Southwest 408 470 25,700 1,553 Climbing FlightAware ADS-B
Mon 05:25:52 PM 44.4500 -74.5140 224° Southwest 408 470 26,900 918 Climbing FlightAware ADS-B
Mon 05:26:32 PM 44.3950 -74.5880 224° Southwest 410 472 27,000 1,176 Climbing FlightAware ADS-B
Mon 05:29:57 PM 44.1190 -74.9580 224° Southwest 426 490 31,700 1,396 Climbing FlightAware ADS-B
Mon 05:30:37 PM 44.0560 -75.0430 224° Southwest 429 494 32,700 1,855 Climbing FlightAware ADS-B
Mon 05:31:47 PM 43.9590 -75.1710 224° Southwest 401 461 35,100 1,855 Climbing FlightAware ADS-B
Mon 05:32:27 PM 43.9080 -75.2390 224° Southwest 402 463 36,100 1,360 Climbing FlightAware ADS-B
Mon 05:33:02 PM 43.8540 -75.3100 223° Southwest 401 461 36,800 1,125 Climbing FlightAware ADS-B
Mon 05:33:47 PM 43.8030 -75.3760 223° Southwest 397 457 37,600 1,133 Climbing FlightAware ADS-B
Mon 05:34:32 PM 43.7400 -75.4590 224° Southwest 392 451 38,500 776 Climbing FlightAware ADS-B
Mon 05:35:12 PM 43.6880 -75.5270 223° Southwest 398 458 38,700 375 Climbing FlightAware ADS-B
Mon 05:35:52 PM 43.6350 -75.5960 223° Southwest 403 464 39,000 212 Climbing FlightAware ADS-B
Mon 05:36:37 PM 43.5710 -75.6780 223° Southwest 405 466 39,000  Level FlightAware ADS-B
Mon 05:37:17 PM 43.5200 -75.7450 224° Southwest 402 463 39,000  Level FlightAware ADS-B
Mon 05:38:02 PM 43.4570 -75.8270 223° Southwest 404 465 39,000  Level FlightAware ADS-B
Mon 05:38:42 PM 43.4010 -75.8990 223° Southwest 404 465 39,000  Level FlightAware ADS-B
Mon 05:39:27 PM 43.3410 -75.9750 223° Southwest 404 465 39,000  Level FlightAware ADS-B
Mon 05:40:07 PM 43.2850 -76.0470 223° Southwest 404 465 39,000  Level FlightAware ADS-B
Mon 05:40:47 PM 43.2310 -76.1160 223° Southwest 403 464 39,000  Level FlightAware ADS-B
Mon 05:41:32 PM 43.1690 -76.1930 222° Southwest 403 464 39,000  Level FlightAware ADS-B
Mon 05:42:12 PM 43.1110 -76.2450 213° Southwest 404 465 39,000  Level FlightAware ADS-B
Mon 05:42:57 PM 43.0370 -76.3100 213° Southwest 404 465 39,000 300 Level FlightAware ADS-B
Mon 05:45:32 PM 42.7860 -76.5230 212° Southwest 417 480 40,000 300 Climbing FlightAware ADS-B
Mon 05:46:17 PM 42.7110 -76.5850 211° Southwest 414 476 40,000  Level FlightAware ADS-B
Mon 05:46:57 PM 42.6490 -76.6370 212° Southwest 409 471 40,000  Level FlightAware ADS-B
Mon 05:47:42 PM 42.5740 -76.7000 212° Southwest 408 470 40,000  Level FlightAware ADS-B
Mon 05:48:22 PM 42.5120 -76.7520 212° Southwest 407 468 40,000  Level FlightAware ADS-B
Mon 05:49:02 PM 42.4460 -76.8060 211° Southwest 404 465 40,000  Level FlightAware ADS-B
Mon 05:49:47 PM 42.3810 -76.8610 212° Southwest 403 464 40,000  Level FlightAware ADS-B
Mon 05:50:27 PM 42.3140 -76.9150 211° Southwest 402 463 40,000  Level FlightAware ADS-B
Mon 05:51:07 PM 42.2540 -76.9650 212° Southwest 402 463 40,000  Level FlightAware ADS-B
Mon 05:51:52 PM 42.1770 -77.0280 211° Southwest 401 461 40,000  Level FlightAware ADS-B
Mon 05:52:32 PM 42.1140 -77.0800 211° Southwest 401 461 40,000  Level FlightAware ADS-B
Mon 05:53:17 PM 42.0420 -77.1390 211° Southwest 403 464 40,000  Level FlightAware ADS-B
Mon 05:53:57 PM 41.9810 -77.1890 211° Southwest 402 463 40,000  Level FlightAware ADS-B
Mon 05:54:42 PM 41.9060 -77.2500 211° Southwest 404 465 40,000  Level FlightAware ADS-B
Mon 05:55:22 PM 41.8450 -77.3000 211° Southwest 404 465 40,000  Level FlightAware ADS-B
Mon 05:56:02 PM 41.7790 -77.3530 211° Southwest 406 467 40,000  Level FlightAware ADS-B
Mon 05:56:47 PM 41.7050 -77.4120 211° Southwest 407 468 40,000  Level FlightAware ADS-B
Mon 05:57:27 PM 41.6400 -77.4630 210° Southwest 409 471 40,000  Level FlightAware ADS-B
Mon 05:58:12 PM 41.5690 -77.5150 209° Southwest 410 472 40,000  Level FlightAware ADS-B
Mon 05:58:52 PM 41.4990 -77.5660 209° Southwest 409 471 40,000  Level FlightAware ADS-B
Mon 05:59:32 PM 41.4360 -77.6130 209° Southwest 408 470 40,000  Level FlightAware ADS-B
Mon 06:00:17 PM 41.3610 -77.6680 209° Southwest 408 470 40,000  Level FlightAware ADS-B
Mon 06:00:57 PM 41.2930 -77.7180 209° Southwest 409 471 40,000  Level FlightAware ADS-B
Mon 06:01:42 PM 41.2230 -77.7690 209° Southwest 410 472 40,000  Level FlightAware ADS-B
Mon 06:04:32 PM 40.9350 -77.9790 209° Southwest 415 478 40,000  Level FlightAware ADS-B
Mon 06:05:17 PM 40.8520 -78.0200 200° South 418 481 40,000  Level FlightAware ADS-B
Mon 06:06:02 PM 40.7690 -78.0570 199° South 416 479 40,000  Level FlightAware ADS-B
Mon 06:07:15 PM 40.6243 -78.1210 199° South 414 476 40,000  Level FlightAware ADS-B
Mon 06:07:55 PM 40.5526 -78.1521 198° South 412 474 40,000  Level FlightAware ADS-B
Mon 06:10:12 PM 40.3460 -78.3190 212° Southwest 404 465 40,000  Level FlightAware ADS-B
Mon 06:10:52 PM 40.2890 -78.3810 220° Southwest 404 465 40,000  Level FlightAware ADS-B
Mon 06:11:27 PM 40.2450 -78.4300 220° Southwest 405 466 40,000  Level FlightAware ADS-B
Mon 06:11:52 PM 40.1920 -78.4843 218° Southwest 406 467 40,000  Level FlightAware ADS-B
Mon 06:12:06 PM 40.1679 -78.4979 203° Southwest 407 468 40,000  Level FlightAware ADS-B
Mon 06:12:38 PM 40.1102 -78.5194 196° South 408 470 40,000  Level FlightAware ADS-B
Mon 06:13:42 PM 40.0090 -78.5570 196° South 408 470 40,000  Level FlightAware ADS-B
Mon 06:14:55 PM 39.8697 -78.6086 196° South 393 452 40,000  Level Washington Center
Mon 06:15:54 PM 39.7583 -78.6525 197° South 406 467 40,000  Level Washington Center
Mon 06:16:55 PM 39.6489 -78.6908 195° South 412 474 40,000  Level Washington Center
Mon 06:17:55 PM 39.5394 -78.7319 196° South 412 474 40,000  Level Washington Center
Mon 06:18:55 PM 39.4300 -78.7728 196° South 412 474 40,000  Level Washington Center
Mon 06:19:55 PM 39.3206 -78.8136 196° South 412 474 40,000  Level Washington Center
Mon 06:20:55 PM 39.2089 -78.8542 196° South 412 474 40,000  Level Washington Center
Mon 06:21:54 PM 39.0994 -78.8950 196° South 417 480 40,000  Level Washington Center
Mon 06:22:55 PM 38.9900 -78.9353 196° South 417 480 40,000  Level Washington Center
Mon 06:28:37 PM 38.3420 -79.1660 196° South 425 489 40,000  Level FlightAware ADS-B
Mon 06:29:17 PM 38.2660 -79.1930 196° South 427 491 40,000  Level FlightAware ADS-B
Mon 06:29:57 PM 38.1890 -79.2200 195° South 428 493 40,000  Level FlightAware ADS-B
Mon 06:30:37 PM 38.1150 -79.2470 196° South 429 494 40,000  Level FlightAware ADS-B
Mon 06:31:22 PM 38.0290 -79.2770 195° South 430 495 40,000  Level FlightAware ADS-B
Mon 06:32:22 PM 37.9200 -79.3160 196° South 430 495 40,000  Level FlightAware ADS-B
Mon 06:33:12 PM 37.8270 -79.3480 195° South 422 486 40,000  Level FlightAware ADS-B
Mon 06:33:54 PM 37.7528 -79.3767 195° South 427 491 40,000  Level Washington Center
Mon 06:34:55 PM 37.6219 -79.4200 195° South 433 498 40,000  Level Washington Center
Mon 06:35:55 PM 37.5186 -79.4567 196° South 438 504 40,000  Level Washington Center
Mon 06:36:55 PM 37.4025 -79.4978 196° South 438 504 40,000  Level Washington Center
Mon 06:37:55 PM 37.2886 -79.5364 195° South 438 504 40,000  Level Washington Center
Mon 06:38:54 PM 37.1661 -79.5794 196° South 438 504 40,000  Level Washington Center
Mon 06:39:54 PM 37.0522 -79.6178 195° South 433 498 40,000  Level Washington Center
Mon 06:40:55 PM 36.9361 -79.6586 196° South 433 498 40,000  Level Washington Center
Mon 06:43:17 PM 36.6653 -79.7478 195° South 433 498 40,000  Level Atlanta Center
Mon 06:44:17 PM 36.5622 -79.7819 195° South 433 498 40,000  Level Atlanta Center
Mon 06:45:17 PM 36.4467 -79.8214 195° South 433 498 40,000  Level Atlanta Center
Mon 06:46:17 PM 36.3333 -79.8583 195° South 428 493 40,000  Level Atlanta Center
Mon 06:47:17 PM 36.2075 -79.9011 195° South 428 493 40,000  Level Atlanta Center
Mon 06:52:32 PM 35.6100 -80.1040 195° South 427 491 40,000  Level FlightAware ADS-B
Mon 06:53:07 PM 35.5500 -80.1230 194° South 427 491 40,000  Level FlightAware ADS-B
Mon 06:53:47 PM 35.4850 -80.1450 195° South 427 491 40,000  Level FlightAware ADS-B
Mon 06:54:37 PM 35.4040 -80.1710 195° South 427 491 40,000  Level FlightAware ADS-B
Mon 06:55:17 PM 35.3390 -80.1930 195° South 427 491 40,000  Level FlightAware ADS-B
Mon 06:56:12 PM 35.1920 -80.2410 195° South 432 497 40,000  Level FlightAware ADS-B
Mon 06:56:57 PM 35.1100 -80.2690 196° South 432 497 40,000  Level FlightAware ADS-B
Mon 06:57:37 PM 35.0450 -80.2920 196° South 432 497 40,000  Level FlightAware ADS-B
Mon 06:58:17 PM 34.9790 -80.3150 196° South 432 497 40,000  Level FlightAware ADS-B
Mon 06:58:57 PM 34.9140 -80.3380 196° South 432 497 40,000  Level FlightAware ADS-B
Mon 06:59:37 PM 34.8490 -80.3600 196° South 432 497 40,000  Level FlightAware ADS-B
Mon 07:00:27 PM 34.7670 -80.3890 196° South 432 497 40,000  Level FlightAware ADS-B
Mon 07:01:07 PM 34.7020 -80.4120 196° South 432 497 40,000  Level FlightAware ADS-B
Mon 07:01:47 PM 34.6360 -80.4350 196° South 432 497 40,000  Level FlightAware ADS-B
Mon 07:02:22 PM 34.4830 -80.4710 191° South 436 502 40,000  Level FlightAware ADS-B
Mon 07:03:07 PM 34.3970 -80.4990 195° South 436 502 40,000  Level FlightAware ADS-B
Mon 07:03:52 PM 34.3060 -80.5280 195° South 436 502 40,000  Level FlightAware ADS-B
Mon 07:04:32 PM 34.2400 -80.5490 195° South 436 502 40,000  Level FlightAware ADS-B
Mon 07:05:12 PM 34.1950 -80.5630 194° South 435 501 40,000  Level FlightAware ADS-B
Mon 07:06:02 PM 34.0570 -80.6070 195° South 435 501 40,000  Level FlightAware ADS-B
Mon 07:06:52 PM 34.0150 -80.6200 194° South 435 501 40,000  Level FlightAware ADS-B
Mon 07:07:42 PM 33.8540 -80.6710 195° South 434 499 40,000  Level FlightAware ADS-B
Mon 07:08:22 PM 33.7770 -80.6950 195° South 433 498 40,000  Level FlightAware ADS-B
Mon 07:09:02 PM 33.7010 -80.7190 195° South 432 497 40,000  Level FlightAware ADS-B
Mon 07:09:47 PM 33.6140 -80.7470 195° South 432 497 40,000  Level FlightAware ADS-B
Mon 07:10:22 PM 33.5460 -80.7680 194° South 433 498 40,000  Level FlightAware ADS-B
Mon 07:11:12 PM 33.4490 -80.7990 195° South 434 499 40,000  Level FlightAware ADS-B
Mon 07:11:52 PM 33.3710 -80.8230 194° South 437 503 40,000  Level FlightAware ADS-B
Mon 07:12:32 PM 33.2920 -80.8470 194° South 441 507 40,000  Level FlightAware ADS-B
Mon 07:13:17 PM 33.2000 -80.8540 184° South 448 516 40,000  Level FlightAware ADS-B
Mon 07:13:52 PM 33.1280 -80.8590 183° South 447 514 40,000  Level FlightAware ADS-B
Mon 07:14:37 PM 33.0370 -80.8740 188° South 437 503 40,000  Level FlightAware ADS-B
Mon 07:15:22 PM 32.9490 -80.8980 193° South 435 501 40,000  Level FlightAware ADS-B
Mon 07:16:02 PM 32.8760 -80.9180 193° South 433 498 40,000  Level FlightAware ADS-B
Mon 07:16:47 PM 32.7810 -80.9440 193° South 432 497 40,000  Level FlightAware ADS-B
Mon 07:17:27 PM 32.7040 -80.9650 193° South 431 496 40,000  Level FlightAware ADS-B
Mon 07:18:07 PM 32.6270 -80.9850 192° South 432 497 40,000  Level FlightAware ADS-B
Mon 07:18:52 PM 32.5390 -81.0070 192° South 432 497 40,000  Level FlightAware ADS-B
Mon 07:19:32 PM 32.4670 -81.0260 193° South 432 497 40,000  Level FlightAware ADS-B
Mon 07:20:17 PM 32.3860 -81.0480 193° South 432 497 40,000  Level FlightAware ADS-B
Mon 07:20:57 PM 32.3200 -81.0660 193° South 432 497 40,000  Level FlightAware ADS-B
Mon 07:21:37 PM 32.2540 -81.0840 193° South 432 497 40,000  Level FlightAware ADS-B
Mon 07:22:22 PM 32.1290 -81.0450 165° South 40,000  Level FlightAware ADS-B
Mon 07:22:27 PM 32.1100 -81.0450 180° South 444 511 40,000  Level FlightAware ADS-B
Mon 07:23:17 PM 32.0070 -81.0480 181° South 441 507 40,000  Level FlightAware ADS-B
Mon 07:24:12 PM 31.8890 -81.0510 181° South 441 507 40,000  Level FlightAware ADS-B
Mon 07:24:52 PM 31.8050 -81.0530 181° South 441 507 40,000  Level FlightAware ADS-B
Mon 07:25:32 PM 31.7260 -81.0550 181° South 442 509 40,000  Level FlightAware ADS-B
Mon 07:26:12 PM 31.6400 -81.0570 181° South 444 511 40,000  Level FlightAware ADS-B
Mon 07:27:12 PM 31.5370 -81.0590 181° South 445 512 40,000  Level FlightAware ADS-B
Mon 07:27:57 PM 31.4300 -81.0620 181° South 447 514 40,000  Level FlightAware ADS-B
Mon 07:28:37 PM 31.3580 -81.0640 181° South 447 514 40,000  Level FlightAware ADS-B
Mon 07:29:37 PM 31.2320 -81.0670 181° South 448 516 40,000  Level FlightAware ADS-B
Mon 07:30:17 PM 31.1620 -81.0680 181° South 448 516 40,000  Level FlightAware ADS-B
Mon 07:30:57 PM 31.0910 -81.0700 181° South 448 516 40,000  Level FlightAware ADS-B
Mon 07:31:37 PM 31.0210 -81.0710 181° South 448 516 40,000  Level FlightAware ADS-B
Mon 07:32:17 PM 30.9510 -81.0730 181° South 448 516 40,000  Level FlightAware ADS-B
Mon 07:33:07 PM 30.8620 -81.0740 181° South 448 516 40,000  Level FlightAware ADS-B
Mon 07:33:47 PM 30.7920 -81.0760 181° South 448 516 40,000  Level FlightAware ADS-B
Mon 07:34:27 PM 30.7220 -81.0770 181° South 448 516 40,000  Level FlightAware ADS-B
Mon 07:35:07 PM 30.6510 -81.0790 181° South 448 516 40,000  Level FlightAware ADS-B
Mon 07:35:47 PM 30.5810 -81.0800 181° South 448 516 40,000  Level FlightAware ADS-B
Mon 07:36:37 PM 30.4930 -81.0820 181° South 448 516 40,000  Level FlightAware ADS-B
Mon 07:37:17 PM 30.4220 -81.0830 181° South 448 516 40,000  Level FlightAware ADS-B
Mon 07:37:57 PM 30.3520 -81.0850 181° South 448 516 40,000  Level FlightAware ADS-B
Mon 07:38:37 PM 30.2810 -81.0860 181° South 448 516 40,000  Level FlightAware ADS-B
Mon 07:39:21 PM 29.9931 -81.0986 181° South 452 520 40,000  Level Jacksonville Center
Mon 07:40:20 PM 29.8656 -81.1011 181° South 457 526 40,000  Level Jacksonville Center
Mon 07:46:07 PM 29.1440 -80.9560 181° South 466 536 40,000  Level FlightAware ADS-B
Mon 07:46:52 PM 29.0550 -80.9280 165° South 466 536 40,000  Level FlightAware ADS-B
Mon 07:47:32 PM 28.9670 -80.8990 164° South 467 537 40,000  Level FlightAware ADS-B
Mon 07:48:17 PM 28.8810 -80.8710 164° South 467 537 40,000  Level FlightAware ADS-B
Mon 07:48:57 PM 28.7890 -80.8420 165° South 466 536 40,000  Level FlightAware ADS-B
Mon 07:49:37 PM 28.7050 -80.8150 164° South 466 536 40,000  Level FlightAware ADS-B
Mon 07:50:22 PM 28.6160 -80.7870 165° South 466 536 40,000  Level FlightAware ADS-B
Mon 07:51:02 PM 28.5280 -80.7590 164° South 467 537 40,000  Level FlightAware ADS-B
Mon 07:51:47 PM 28.4360 -80.7380 169° South 448 516 40,000  Level FlightAware ADS-B
Mon 07:52:27 PM 28.3540 -80.7460 185° South 435 501 40,000  Level FlightAware ADS-B
Mon 07:53:07 PM 28.2720 -80.7550 186° South 435 501 40,000  Level FlightAware ADS-B
Mon 07:53:52 PM 28.1810 -80.7640 185° South 436 502 40,000  Level FlightAware ADS-B
Mon 07:54:32 PM 28.0950 -80.7720 185° South 437 503 40,000  Level FlightAware ADS-B
Mon 07:55:12 PM 28.0130 -80.7800 185° South 438 504 40,000  Level FlightAware ADS-B
Mon 07:55:57 PM 27.9240 -80.7890 185° South 439 505 40,000  Level FlightAware ADS-B
Mon 07:56:37 PM 27.8360 -80.7980 185° South 448 516 40,000  Level FlightAware ADS-B
Mon 07:57:22 PM 27.7430 -80.8070 185° South 449 517 40,000  Level FlightAware ADS-B
Mon 07:58:02 PM 27.6610 -80.8150 185° South 448 516 40,000  Level FlightAware ADS-B
Mon 07:58:42 PM 27.5800 -80.8230 185° South 448 516 40,000  Level FlightAware ADS-B
Mon 07:59:27 PM 27.4870 -80.8320 185° South 439 505 40,000  Level FlightAware ADS-B
Mon 08:00:02 PM 27.4200 -80.8390 185° South 438 504 40,000  Level FlightAware ADS-B
Mon 08:00:52 PM 27.3080 -80.8500 185° South 445 512 40,000  Level FlightAware ADS-B
Mon 08:01:32 PM 27.2270 -80.8570 184° South 444 511 40,000  Level FlightAware ADS-B
Mon 08:02:17 PM 27.1310 -80.8670 185° South 444 511 40,000  Level FlightAware ADS-B
Mon 08:02:57 PM 27.0500 -80.8750 185° South 448 516 40,000  Level FlightAware ADS-B
Mon 08:03:37 PM 26.9730 -80.8820 185° South 449 517 40,000  Level FlightAware ADS-B
Mon 08:04:22 PM 26.8790 -80.8910 185° South 451 519 40,000  Level FlightAware ADS-B
Mon 08:05:02 PM 26.7960 -80.8990 185° South 452 520 40,000  Level FlightAware ADS-B
Mon 08:05:47 PM 26.7010 -80.9080 185° South 453 521 40,000  Level FlightAware ADS-B
Mon 08:06:27 PM 26.6220 -80.9160 185° South 454 522 40,000  Level FlightAware ADS-B
Mon 08:07:07 PM 26.5400 -80.9240 185° South 453 521 40,000  Level FlightAware ADS-B
Mon 08:07:52 PM 26.4390 -80.9330 185° South 454 522 40,000  Level FlightAware ADS-B
Mon 08:08:32 PM 26.3580 -80.9410 185° South 455 524 40,000  Level FlightAware ADS-B
Mon 08:09:17 PM 26.2580 -80.9500 185° South 450 518 40,000  Level FlightAware ADS-B
Mon 08:09:57 PM 26.1750 -80.9580 185° South 451 519 40,000  Level FlightAware ADS-B
Mon 08:10:37 PM 26.0890 -80.9660 185° South 449 517 40,000  Level FlightAware ADS-B
Mon 08:11:22 PM 25.9950 -80.9750 185° South 448 516 40,000  Level FlightAware ADS-B
Mon 08:12:02 PM 25.9110 -80.9830 185° South 448 516 40,000  Level FlightAware ADS-B
Mon 08:12:42 PM 25.8260 -80.9910 185° South 448 516 40,000  Level FlightAware ADS-B
Mon 08:13:27 PM 25.7310 -81.0000 185° South 449 517 40,000  Level FlightAware ADS-B
Mon 08:14:07 PM 25.6470 -81.0080 185° South 450 518 40,000  Level FlightAware ADS-B
Mon 08:14:52 PM 25.5520 -81.0170 185° South 452 520 40,000  Level FlightAware ADS-B
Mon 08:15:32 PM 25.4680 -81.0250 185° South 454 522 40,000  Level FlightAware ADS-B
Mon 08:16:17 PM 25.3700 -81.0340 185° South 455 524 40,000  Level FlightAware ADS-B
Mon 08:16:57 PM 25.2850 -81.0420 185° South 454 522 40,000  Level FlightAware ADS-B
Mon 08:17:37 PM 25.2070 -81.0710 199° South 415 478 40,000 -494 Level FlightAware ADS-B
Mon 08:18:22 PM 25.1470 -81.1380 225° Southwest 405 466 39,300 -1,976 Descending FlightAware ADS-B
Mon 08:19:02 PM 25.0920 -81.2000 226° Southwest 422 486 37,200 -3,035 Descending FlightAware ADS-B
Mon 08:19:47 PM 25.0340 -81.2690 227° Southwest 429 494 35,000 -3,247 Descending FlightAware ADS-B
Mon 08:20:27 PM 24.9790 -81.3340 227° Southwest 435 501 32,600 -3,171 Descending FlightAware ADS-B
Mon 08:20:57 PM 24.9240 -81.3710 211° Southwest 459 528 31,300 -1,371 Descending FlightAware ADS-B
Mon 08:21:37 PM 24.8450 -81.3770 184° South 484 557 31,000 -880 Descending FlightAware ADS-B
Mon 08:22:12 PM 24.7600 -81.3680 175° South 479 551 30,200 -1,694 Descending FlightAware ADS-B
Mon 08:23:02 PM 24.6520 -81.3710 181° South 451 519 28,600 -1,867 Descending FlightAware ADS-B
Mon 08:23:42 PM 24.5660 -81.3750 182° South 447 514 27,400 -1,906 Descending FlightAware ADS-B
Mon 08:24:27 PM 24.4740 -81.3800 183° South 447 514 25,900 -2,118 Descending FlightAware ADS-B
Mon 08:25:07 PM 24.3920 -81.3860 184° South 439 505 24,400 -1,553 Descending FlightAware ADS-B
Mon 08:25:52 PM 24.3030 -81.3940 185° South 435 501 23,700 -1,467 Descending FlightAware ADS-B
Mon 08:26:37 PM 24.2190 -81.3660 163° South 437 503 22,200 -1,725 Descending FlightAware ADS-B
Mon 08:27:12 PM 24.1590 -81.3250 148° Southeast 435 501 21,400 -600 Descending FlightAware ADS-B
Mon 08:27:57 PM 24.0910 -81.2770 147° Southeast 435 501 21,400  Level FlightAware ADS-B
Mon 08:28:37 PM 24.0340 -81.2360 147° Southeast 435 501 21,400  Level FlightAware ADS-B
Mon 08:29:17 PM 23.9760 -81.1950 147° Southeast 435 501 21,400  Level FlightAware ADS-B
Mon 08:30:07 PM 23.9050 -81.1440 147° Southeast 435 501 21,400  Level FlightAware ADS-B
Mon 08:30:47 PM 23.8470 -81.1030 147° Southeast 435 501 21,400  Level FlightAware ADS-B
Mon 08:35:00 PM 23.3755 -81.2963 201° Southwest  Level Estimated
Mon 08:36:00 PM 23.2636 -81.3420 201° Southwest  Level Estimated
Mon 08:37:00 PM 23.1518 -81.3876 201° Southwest  Level Estimated
Mon 08:38:00 PM 23.0399 -81.4331 201° Southwest  Level Estimated
Mon 08:39:00 PM 23.0345 -81.4353 200° South  Level Estimated
Mon 08:40:00 PM 23.0344 -81.4353 160° South  Level Estimated
Mon 08:41:00 PM 23.0345 -81.4353 20° North  Level Estimated
Mon 08:42:00 PM 23.0344 -81.4353 160° South  Level Estimated
Mon 08:43:00 PM 23.0345 -81.4353 20° North  Level Estimated
Mon 08:44:00 PM 23.0344 -81.4353 160° South  Level Estimated
Mon 08:45:00 PM 23.0345 -81.4353 20° North  Level Estimated
Mon 08:46:00 PM 23.0344 -81.4353 160° South  Level Estimated
Mon 08:47:00 PM 23.0345 -81.4353 20° North  Level Estimated
Mon 08:48:00 PM 23.0344 -81.4353 160° South  Level Estimated
Mon 08:49:00 PM 23.0345 -81.4353 20° North  Level Estimated
Mon 08:50:00 PM 23.0344 -81.4353 160° South  Level Estimated

Login

Don't have an account? Register now (free) for customized features, flight alerts, and more!